Terminal Aerodrome Forecast
Issued by NWS

Home | Current Version | Previous Version | Graphics & Text | Print | Product List | Glossary On
Versions: 1 2 3 4 5 6 7 8 9 10 11 12 13 14 15 16 17 18 19 20 21 22 23 24 25 26
167
FTUS43 KMPX 141028 AAA
TAFRWF
TAF AMD
KRWF 141028Z 1410/1506 VRB03KT 3SM BR OVC007
     FM141600 33005KT P6SM OVC017
     FM142000 35005KT P6SM BKN040=

USA.gov is the U.S. government's official web portal to all federal, state and local government web resources and services.